createdAt,value
2023-07-24T00:00:29.998Z,7.90
2023-07-24T00:02:57.949Z,9.10
2023-07-24T00:05:24.906Z,9.40
2023-07-24T00:07:51.978Z,10.20
2023-07-24T00:10:18.824Z,9.10
2023-07-24T00:12:45.660Z,9.50
2023-07-24T00:15:12.419Z,9.90
2023-07-24T00:17:39.278Z,9.20
2023-07-24T00:20:07.641Z,9.30
2023-07-24T00:22:34.366Z,9.30
2023-07-24T00:25:01.076Z,8.90
2023-07-24T00:27:28.974Z,10.20
2023-07-24T00:29:55.714Z,9.50
2023-07-24T00:32:22.493Z,9.50
2023-07-24T00:34:49.498Z,9.80
2023-07-24T00:37:16.559Z,9.60
2023-07-24T00:39:43.286Z,9.60
2023-07-24T00:42:10.047Z,9.00
2023-07-24T00:44:37.693Z,10.10
2023-07-24T00:47:05.849Z,9.00
2023-07-24T00:49:32.777Z,9.20
2023-07-24T00:51:59.666Z,9.00
2023-07-24T00:54:31.733Z,9.10
2023-07-24T00:59:25.138Z,8.70
2023-07-24T01:01:52.640Z,6.70
2023-07-24T01:04:20.705Z,8.90
2023-07-24T01:06:47.841Z,8.60
2023-07-24T01:09:14.739Z,8.80
2023-07-24T01:12:25.106Z,9.30
2023-07-24T01:14:59.546Z,9.40
2023-07-24T01:17:30.295Z,7.70
2023-07-24T01:20:00.208Z,8.20
2023-07-24T01:22:30.185Z,8.50
2023-07-24T01:25:30.497Z,7.90
2023-07-24T01:27:57.291Z,9.10
2023-07-24T01:30:24.114Z,7.90
2023-07-24T01:32:51.049Z,9.10
2023-07-24T01:35:18.396Z,9.20
2023-07-24T01:37:48.113Z,9.40
2023-07-24T01:40:16.231Z,9.00
2023-07-24T01:42:43.618Z,9.40
2023-07-24T01:45:12.602Z,9.50
2023-07-24T01:47:40.005Z,8.90
2023-07-24T01:50:07.532Z,9.80
2023-07-24T01:52:34.442Z,9.50
2023-07-24T01:55:01.205Z,9.90
2023-07-24T01:57:28.029Z,9.80
2023-07-24T01:59:54.873Z,10.40
2023-07-24T02:02:21.928Z,9.70
2023-07-24T02:04:48.710Z,9.10
2023-07-24T02:07:15.489Z,10.50
2023-07-24T02:09:42.241Z,9.10
2023-07-24T02:12:09.126Z,10.50
2023-07-24T02:14:35.945Z,9.10
2023-07-24T02:17:02.658Z,9.90
2023-07-24T02:19:29.453Z,10.20
2023-07-24T02:21:56.179Z,9.30
2023-07-24T02:24:23.000Z,8.70
2023-07-24T02:26:50.757Z,8.80
2023-07-24T02:29:17.528Z,9.40
2023-07-24T02:31:44.299Z,9.20
2023-07-24T02:34:11.067Z,9.10
2023-07-24T02:36:42.537Z,8.90
2023-07-24T02:39:09.846Z,9.40
2023-07-24T02:41:36.662Z,9.60
2023-07-24T02:44:05.136Z,8.70
2023-07-24T02:46:32.615Z,9.20
2023-07-24T02:49:00.084Z,9.60
2023-07-24T02:51:26.897Z,9.70
2023-07-24T02:53:55.604Z,8.90
2023-07-24T02:56:23.182Z,8.90
2023-07-24T02:58:50.313Z,8.50
2023-07-24T03:01:17.260Z,8.40
2023-07-24T03:03:44.223Z,9.40
2023-07-24T03:06:11.012Z,7.40
2023-07-24T03:08:37.734Z,8.70
2023-07-24T03:11:08.563Z,9.30
2023-07-24T03:13:35.370Z,8.80
2023-07-24T03:16:02.130Z,9.00
2023-07-24T03:18:28.993Z,8.90
2023-07-24T03:20:58.261Z,9.40
2023-07-24T03:23:24.954Z,9.70
2023-07-24T03:25:51.707Z,10.20
2023-07-24T03:28:18.442Z,9.70
2023-07-24T03:30:45.363Z,8.80
2023-07-24T03:33:13.355Z,9.20
2023-07-24T03:35:40.519Z,8.40
2023-07-24T03:38:07.232Z,9.30
2023-07-24T03:40:34.054Z,9.20
2023-07-24T03:43:01.009Z,8.80
2023-07-24T03:45:27.823Z,9.50
2023-07-24T03:47:54.692Z,9.70
2023-07-24T03:50:21.465Z,9.50
2023-07-24T03:52:48.308Z,9.90
2023-07-24T03:55:15.149Z,8.70
2023-07-24T03:57:41.900Z,10.20
2023-07-24T04:00:09.341Z,10.30
2023-07-24T04:02:42.046Z,9.50
2023-07-24T04:05:09.121Z,9.50
2023-07-24T04:07:36.005Z,9.60
2023-07-24T04:10:02.987Z,10.50
2023-07-24T04:12:30.796Z,10.50
2023-07-24T04:14:57.607Z,10.10
2023-07-24T04:17:24.619Z,9.80
2023-07-24T04:19:51.580Z,10.50
2023-07-24T04:22:18.351Z,9.90
2023-07-24T04:24:45.075Z,10.60
2023-07-24T04:27:11.830Z,10.50
2023-07-24T04:29:38.652Z,10.00
2023-07-24T04:32:05.477Z,9.80
2023-07-24T04:34:34.252Z,10.20
2023-07-24T04:37:01.094Z,10.00
2023-07-24T04:39:27.827Z,10.80
2023-07-24T04:41:54.603Z,12.30
2023-07-24T04:44:21.364Z,10.20
2023-07-24T04:46:48.117Z,11.00
2023-07-24T04:49:14.839Z,10.80
2023-07-24T04:51:41.664Z,11.40
2023-07-24T04:54:08.519Z,11.90
2023-07-24T04:56:35.309Z,12.10
2023-07-24T04:59:02.051Z,11.60
2023-07-24T05:01:28.924Z,11.10
2023-07-24T05:03:55.666Z,12.20
2023-07-24T05:06:22.866Z,11.40
2023-07-24T05:08:49.877Z,11.60
2023-07-24T05:11:16.830Z,11.10
2023-07-24T05:13:43.569Z,11.30
2023-07-24T05:16:10.378Z,11.00
2023-07-24T05:18:39.199Z,11.20
2023-07-24T05:21:07.453Z,10.90
2023-07-24T05:23:34.348Z,10.80
2023-07-24T05:26:03.159Z,11.00
2023-07-24T05:28:31.924Z,9.70
2023-07-24T05:31:05.929Z,9.40
2023-07-24T05:33:33.558Z,10.00
2023-07-24T05:36:05.006Z,9.80
2023-07-24T05:38:32.072Z,9.80
2023-07-24T05:41:03.878Z,10.10
2023-07-24T05:43:32.312Z,10.10
2023-07-24T05:45:59.715Z,10.20
2023-07-24T05:48:26.649Z,10.60
2023-07-24T05:50:53.810Z,10.60
2023-07-24T05:53:20.750Z,10.20
2023-07-24T05:55:47.495Z,11.10
2023-07-24T05:58:14.313Z,10.50
2023-07-24T06:00:40.978Z,11.00
2023-07-24T06:03:08.965Z,11.50
2023-07-24T06:05:36.267Z,10.10
2023-07-24T06:08:03.168Z,9.20
2023-07-24T06:10:30.099Z,9.40
2023-07-24T06:12:57.075Z,10.00
2023-07-24T06:15:24.000Z,10.40
2023-07-24T06:17:53.570Z,9.50
2023-07-24T06:20:21.975Z,12.80
2023-07-24T06:22:48.965Z,10.30
2023-07-24T06:25:15.836Z,10.20
2023-07-24T06:27:42.582Z,10.90
2023-07-24T06:30:15.812Z,9.60
2023-07-24T06:32:44.586Z,9.70
2023-07-24T06:35:11.485Z,9.90
2023-07-24T06:37:38.325Z,10.10
2023-07-24T06:40:06.295Z,10.70
2023-07-24T06:42:33.245Z,10.20
2023-07-24T06:45:00.277Z,9.90
2023-07-24T06:47:27.418Z,9.80
2023-07-24T06:49:54.547Z,8.60
2023-07-24T06:52:21.789Z,8.60
2023-07-24T06:54:48.716Z,8.60
2023-07-24T06:57:15.936Z,8.10
2023-07-24T06:59:42.840Z,7.80
2023-07-24T07:02:09.929Z,7.80
2023-07-24T07:04:36.834Z,8.30
2023-07-24T07:07:04.137Z,8.10
2023-07-24T07:09:31.399Z,8.00
2023-07-24T07:11:58.812Z,7.80
2023-07-24T07:14:25.936Z,7.50
2023-07-24T07:16:52.672Z,7.60
2023-07-24T07:19:19.458Z,7.60
2023-07-24T07:21:46.144Z,7.10
2023-07-24T07:24:13.060Z,7.90
2023-07-24T07:26:39.857Z,7.80
2023-07-24T07:29:06.742Z,8.50
2023-07-24T07:31:33.731Z,7.90
2023-07-24T07:34:00.552Z,7.30
2023-07-24T07:36:27.737Z,7.30
2023-07-24T07:38:54.900Z,7.40
2023-07-24T07:41:21.885Z,7.50
2023-07-24T07:43:48.700Z,7.80
2023-07-24T07:46:15.566Z,7.10
2023-07-24T07:48:42.314Z,7.20
2023-07-24T07:51:09.133Z,7.30
2023-07-24T07:53:35.834Z,7.40
2023-07-24T07:56:02.958Z,7.40
2023-07-24T07:58:29.833Z,6.90
2023-07-24T08:00:56.857Z,7.10
2023-07-24T08:03:24.062Z,7.20
2023-07-24T08:05:50.925Z,6.90
2023-07-24T08:08:17.698Z,6.90
2023-07-24T08:10:44.524Z,6.00
2023-07-24T08:13:11.633Z,8.50
2023-07-24T08:15:39.168Z,6.60
2023-07-24T08:18:06.809Z,7.70
2023-07-24T08:20:37.490Z,7.90
2023-07-24T08:23:04.614Z,9.00
2023-07-24T08:25:31.729Z,8.30
2023-07-24T08:28:05.238Z,8.10
2023-07-24T08:30:35.728Z,8.10
2023-07-24T08:33:02.902Z,8.20
2023-07-24T08:35:30.239Z,7.00
2023-07-24T08:37:57.391Z,7.20
2023-07-24T08:40:24.299Z,6.90
2023-07-24T08:42:54.439Z,8.30
2023-07-24T08:45:21.515Z,7.30
2023-07-24T08:47:49.846Z,5.50
2023-07-24T08:50:18.409Z,6.50
2023-07-24T08:52:46.168Z,7.30
2023-07-24T08:55:13.281Z,7.60
2023-07-24T08:57:40.036Z,5.80
2023-07-24T09:00:07.472Z,6.40
2023-07-24T09:02:36.214Z,5.00
2023-07-24T09:05:04.626Z,7.20
2023-07-24T09:07:32.331Z,7.50
2023-07-24T09:09:59.306Z,7.00
2023-07-24T09:12:26.075Z,6.90
2023-07-24T09:15:04.304Z,7.10
2023-07-24T09:17:31.081Z,7.00
2023-07-24T09:19:58.978Z,6.50
2023-07-24T09:22:27.955Z,6.60
2023-07-24T09:24:57.213Z,6.50
2023-07-24T09:27:30.128Z,7.10
2023-07-24T09:29:59.288Z,7.20
2023-07-24T09:32:27.988Z,7.10
2023-07-24T09:34:55.705Z,7.90
2023-07-24T09:37:27.291Z,6.80
2023-07-24T09:39:54.447Z,6.80
2023-07-24T09:42:31.883Z,7.80
2023-07-24T09:44:58.846Z,7.40
2023-07-24T09:47:32.814Z,7.20
2023-07-24T09:50:13.039Z,7.70
2023-07-24T09:52:43.045Z,7.10
2023-07-24T09:55:32.737Z,8.10
2023-07-24T09:58:01.690Z,7.00
2023-07-24T10:00:28.825Z,6.90
2023-07-24T10:02:56.659Z,7.20
2023-07-24T10:05:24.228Z,6.60
2023-07-24T10:07:52.635Z,6.60
2023-07-24T10:10:19.585Z,6.10
2023-07-24T10:12:46.749Z,6.40
2023-07-24T10:15:14.468Z,7.00
2023-07-24T10:17:43.384Z,6.70
2023-07-24T10:20:13.058Z,7.10
2023-07-24T10:22:44.314Z,7.20
2023-07-24T10:25:11.973Z,6.50
2023-07-24T10:27:47.507Z,7.40
2023-07-24T10:30:28.256Z,6.40
2023-07-24T10:33:08.439Z,6.60
2023-07-24T10:35:44.413Z,7.80
2023-07-24T10:38:17.415Z,6.70
2023-07-24T10:40:47.034Z,7.10
2023-07-24T10:43:18.696Z,7.50
2023-07-24T10:45:55.479Z,7.40
2023-07-24T10:48:27.006Z,7.90
2023-07-24T10:50:55.128Z,7.30
2023-07-24T10:53:24.052Z,6.60
2023-07-24T10:55:52.663Z,6.80
2023-07-24T10:58:19.500Z,6.70
2023-07-24T11:00:47.942Z,6.60
2023-07-24T11:03:15.958Z,6.60
2023-07-24T11:05:44.376Z,6.70
2023-07-24T11:08:18.691Z,7.00
2023-07-24T11:10:57.810Z,6.90
2023-07-24T11:13:27.096Z,6.40
2023-07-24T11:15:55.011Z,7.20
2023-07-24T11:18:23.673Z,6.50
2023-07-24T11:20:53.056Z,7.00
2023-07-24T11:23:20.309Z,7.30
2023-07-24T11:25:47.895Z,7.20
2023-07-24T11:28:16.093Z,7.10
2023-07-24T11:30:44.629Z,7.10
2023-07-24T11:33:16.142Z,7.50
2023-07-24T11:35:44.702Z,7.20
2023-07-24T11:38:12.019Z,7.80
2023-07-24T11:40:42.226Z,7.40
2023-07-24T11:43:19.829Z,7.00
2023-07-24T11:45:50.180Z,6.90
2023-07-24T11:48:17.101Z,7.10
2023-07-24T11:50:48.774Z,7.40
2023-07-24T11:53:23.346Z,7.20
2023-07-24T11:55:52.100Z,6.80
2023-07-24T11:58:19.471Z,7.50
2023-07-24T12:00:48.400Z,6.80
2023-07-24T12:03:20.996Z,6.90
2023-07-24T12:05:50.427Z,6.50
2023-07-24T12:08:21.255Z,7.20
2023-07-24T12:10:47.990Z,6.70
2023-07-24T12:13:14.670Z,6.70
2023-07-24T12:15:41.450Z,6.50
2023-07-24T12:18:08.634Z,6.90
2023-07-24T12:20:35.929Z,6.50
2023-07-24T12:23:02.969Z,6.40
2023-07-24T12:25:29.866Z,7.00
2023-07-24T12:27:56.577Z,6.30
2023-07-24T12:30:23.434Z,6.20
2023-07-24T12:32:50.342Z,6.30
2023-07-24T12:35:18.728Z,6.50
2023-07-24T12:37:46.986Z,6.30
2023-07-24T12:40:14.690Z,6.50
2023-07-24T12:42:41.515Z,7.50
2023-07-24T12:45:08.565Z,7.10
2023-07-24T12:47:35.316Z,7.80
2023-07-24T12:50:02.476Z,7.10
2023-07-24T12:52:30.513Z,6.90
2023-07-24T12:55:02.328Z,7.20
2023-07-24T12:57:30.141Z,7.70
2023-07-24T12:59:56.905Z,6.90
2023-07-24T13:02:23.759Z,7.10
2023-07-24T13:04:50.426Z,7.20
2023-07-24T13:07:17.377Z,6.90
2023-07-24T13:09:45.532Z,7.10
2023-07-24T13:12:12.262Z,6.80
2023-07-24T13:14:41.181Z,7.70
2023-07-24T13:17:12.139Z,6.90
2023-07-24T13:19:39.021Z,7.40
2023-07-24T13:22:06.165Z,7.80
2023-07-24T13:24:33.492Z,7.30
2023-07-24T13:27:00.302Z,7.60
2023-07-24T13:29:27.088Z,6.40
2023-07-24T13:31:54.113Z,8.00
2023-07-24T13:34:21.469Z,7.20
2023-07-24T13:36:48.684Z,7.70
2023-07-24T13:39:15.635Z,5.80
2023-07-24T13:41:43.062Z,5.90
2023-07-24T13:44:11.405Z,7.40
2023-07-24T13:46:40.424Z,7.60
2023-07-24T13:49:08.618Z,6.60
2023-07-24T13:51:35.505Z,7.60
2023-07-24T13:54:03.529Z,7.60
2023-07-24T13:56:32.404Z,7.30
2023-07-24T13:58:59.465Z,5.60
2023-07-24T14:01:26.623Z,6.10
2023-07-24T14:03:53.859Z,5.10
2023-07-24T14:06:20.826Z,6.00
2023-07-24T14:08:47.577Z,5.80
2023-07-24T14:11:14.419Z,4.40
2023-07-24T14:13:41.163Z,4.00
2023-07-24T14:16:07.963Z,4.20
2023-07-24T14:18:34.761Z,3.90
2023-07-24T14:21:02.110Z,3.60
2023-07-24T14:23:28.881Z,4.80
2023-07-24T14:25:55.537Z,3.90
2023-07-24T14:28:22.183Z,4.50
2023-07-24T14:30:48.865Z,3.90
2023-07-24T14:33:15.644Z,3.90
2023-07-24T14:35:42.364Z,4.00
2023-07-24T14:38:09.086Z,4.30
2023-07-24T14:40:35.839Z,4.60
2023-07-24T14:43:05.575Z,4.70
2023-07-24T14:45:34.598Z,5.00
2023-07-24T14:48:01.420Z,5.50
2023-07-24T14:50:28.302Z,5.60
2023-07-24T14:52:55.032Z,5.00
2023-07-24T14:55:21.895Z,5.80
2023-07-24T14:57:49.010Z,5.20
2023-07-24T15:00:17.484Z,6.20
2023-07-24T15:02:44.845Z,5.10
2023-07-24T15:05:11.966Z,5.40
2023-07-24T15:07:39.137Z,5.40
2023-07-24T15:10:06.974Z,6.30
2023-07-24T15:12:33.832Z,5.80
2023-07-24T15:15:00.751Z,6.00
2023-07-24T15:17:27.717Z,5.00
2023-07-24T15:19:54.858Z,5.50
2023-07-24T15:22:21.582Z,5.70
2023-07-24T15:24:48.461Z,5.50
2023-07-24T15:27:15.600Z,5.70
2023-07-24T15:29:42.342Z,6.20
2023-07-24T15:32:09.287Z,5.70
2023-07-24T15:34:39.357Z,5.70
2023-07-24T15:37:07.135Z,5.90
2023-07-24T15:39:33.863Z,5.50
2023-07-24T15:42:00.610Z,6.00
2023-07-24T15:44:27.313Z,5.90
2023-07-24T15:46:54.057Z,5.80
2023-07-24T15:49:20.853Z,5.90
2023-07-24T15:51:47.667Z,5.70
2023-07-24T15:54:14.355Z,5.60
2023-07-24T15:56:41.388Z,5.80
2023-07-24T15:59:10.164Z,7.20
2023-07-24T16:01:36.874Z,6.30
2023-07-24T16:04:03.648Z,6.40
2023-07-24T16:06:30.596Z,6.50
2023-07-24T16:08:57.362Z,6.70
2023-07-24T16:11:24.317Z,6.00
2023-07-24T16:13:51.029Z,6.30
2023-07-24T16:16:17.761Z,6.50
2023-07-24T16:18:44.880Z,6.50
2023-07-24T16:21:11.549Z,6.70
2023-07-24T16:23:38.422Z,7.30
2023-07-24T16:26:05.216Z,6.40
2023-07-24T16:28:31.980Z,6.30
2023-07-24T16:30:59.182Z,6.80
2023-07-24T16:33:26.439Z,6.50
2023-07-24T16:35:53.474Z,6.60
2023-07-24T16:38:20.277Z,5.90
2023-07-24T16:40:47.000Z,6.40
2023-07-24T16:43:13.683Z,6.00
2023-07-24T16:45:40.384Z,5.70
2023-07-24T16:48:07.360Z,5.30
2023-07-24T16:50:36.620Z,5.20
2023-07-24T16:53:04.744Z,5.20
2023-07-24T16:55:31.554Z,5.50
2023-07-24T16:57:58.313Z,5.60
2023-07-24T17:00:25.084Z,5.40
2023-07-24T17:02:52.055Z,5.20
2023-07-24T17:05:19.056Z,5.40
2023-07-24T17:07:45.992Z,5.20
2023-07-24T17:10:12.937Z,5.40
2023-07-24T17:12:39.672Z,5.50
2023-07-24T17:15:07.956Z,5.20
2023-07-24T17:17:34.732Z,5.40
2023-07-24T17:20:01.409Z,5.20
2023-07-24T17:22:28.098Z,5.60
2023-07-24T17:24:54.899Z,5.30
2023-07-24T17:27:23.076Z,5.20
2023-07-24T17:29:49.940Z,5.60
2023-07-24T17:32:20.273Z,5.10
2023-07-24T17:34:46.978Z,5.40
2023-07-24T17:37:21.235Z,5.40
2023-07-24T17:39:55.519Z,5.70
2023-07-24T17:42:22.360Z,5.40
2023-07-24T17:44:49.225Z,5.00
2023-07-24T17:47:16.037Z,5.20
2023-07-24T17:49:47.610Z,5.10
2023-07-24T17:52:25.122Z,5.10
2023-07-24T17:54:51.781Z,5.70
2023-07-24T17:57:18.547Z,5.00
2023-07-24T17:59:45.357Z,4.80
2023-07-24T18:02:12.362Z,5.20
2023-07-24T18:04:39.498Z,5.50
2023-07-24T18:07:06.351Z,5.00
2023-07-24T18:09:33.093Z,5.70
2023-07-24T18:11:59.844Z,5.70
2023-07-24T18:14:26.539Z,5.40
2023-07-24T18:16:53.291Z,5.40
2023-07-24T18:19:20.099Z,5.10
2023-07-24T18:21:46.849Z,5.40
2023-07-24T18:24:13.881Z,5.40
2023-07-24T18:26:40.890Z,5.20
2023-07-24T18:29:07.543Z,5.30
2023-07-24T18:31:34.749Z,5.30
2023-07-24T18:34:01.601Z,5.50
2023-07-24T18:36:28.329Z,5.80
2023-07-24T18:38:55.226Z,4.70
2023-07-24T18:41:21.891Z,5.40
2023-07-24T18:43:48.825Z,5.30
2023-07-24T18:46:18.033Z,5.00
2023-07-24T18:48:44.875Z,5.40
2023-07-24T18:51:12.031Z,5.50
2023-07-24T18:53:38.752Z,5.40
2023-07-24T18:56:05.905Z,5.40
2023-07-24T18:58:32.551Z,5.60
2023-07-24T19:00:59.285Z,6.00
2023-07-24T19:03:26.623Z,5.40
2023-07-24T19:05:54.193Z,5.50
2023-07-24T19:08:21.218Z,6.10
2023-07-24T19:10:47.902Z,5.70
2023-07-24T19:13:14.585Z,5.70
2023-07-24T19:15:41.249Z,5.80
2023-07-24T19:18:07.955Z,6.00
2023-07-24T19:20:34.673Z,5.80
2023-07-24T19:23:03.671Z,5.50
2023-07-24T19:25:31.677Z,5.90
2023-07-24T19:27:58.749Z,5.80
2023-07-24T19:30:25.530Z,5.20
2023-07-24T19:32:52.528Z,5.60
2023-07-24T19:35:20.697Z,5.50
2023-07-24T19:37:47.646Z,5.40
2023-07-24T19:40:14.500Z,5.80
2023-07-24T19:42:41.145Z,6.00
2023-07-24T19:45:08.497Z,5.00
2023-07-24T19:47:35.275Z,5.70
2023-07-24T19:50:04.365Z,5.90
2023-07-24T19:52:32.690Z,5.40
2023-07-24T19:54:59.479Z,6.30
2023-07-24T19:57:26.589Z,5.50
2023-07-24T19:59:53.529Z,5.60
2023-07-24T20:02:20.179Z,5.70
2023-07-24T20:04:46.851Z,6.40
2023-07-24T20:07:13.896Z,6.30
2023-07-24T20:09:40.581Z,6.70
2023-07-24T20:12:08.055Z,5.70
2023-07-24T20:14:35.305Z,5.90
2023-07-24T20:17:02.231Z,6.30
2023-07-24T20:19:29.029Z,6.20
2023-07-24T20:21:55.733Z,6.40
2023-07-24T20:24:22.712Z,5.30
2023-07-24T20:26:49.430Z,6.00
2023-07-24T20:29:16.081Z,6.40
2023-07-24T20:31:42.971Z,5.80
2023-07-24T20:34:10.696Z,5.70
2023-07-24T20:36:37.463Z,5.60
2023-07-24T20:39:04.227Z,5.80
2023-07-24T20:41:31.175Z,5.50
2023-07-24T20:43:58.180Z,5.70
2023-07-24T20:46:25.001Z,5.10
2023-07-24T20:48:51.721Z,5.60
2023-07-24T20:51:24.303Z,3.90
2023-07-24T20:53:52.351Z,5.40
2023-07-24T20:56:22.650Z,4.40
2023-07-24T20:58:49.463Z,4.60
2023-07-24T21:01:16.295Z,5.20
2023-07-24T21:03:43.640Z,5.50
2023-07-24T21:06:10.423Z,5.10
2023-07-24T21:08:37.349Z,5.40
2023-07-24T21:11:04.076Z,6.50
2023-07-24T21:13:30.800Z,6.60
2023-07-24T21:15:57.448Z,6.80
2023-07-24T21:18:24.319Z,7.50
2023-07-24T21:20:51.020Z,7.00
2023-07-24T21:23:17.858Z,7.40
2023-07-24T21:25:55.427Z,7.20
2023-07-24T21:28:23.375Z,7.20
2023-07-24T21:30:50.393Z,7.10
2023-07-24T21:33:18.313Z,8.10
2023-07-24T21:35:45.049Z,8.10
2023-07-24T21:38:13.305Z,8.10
2023-07-24T21:40:41.138Z,6.90
2023-07-24T21:43:08.859Z,7.00
2023-07-24T21:45:35.952Z,6.70
2023-07-24T21:48:05.983Z,7.10
2023-07-24T21:50:33.182Z,6.10
2023-07-24T21:53:00.500Z,7.20
2023-07-24T21:55:27.329Z,7.00
2023-07-24T21:57:56.133Z,7.70
2023-07-24T22:00:23.055Z,7.70
2023-07-24T22:02:49.816Z,7.60
2023-07-24T22:05:16.886Z,8.50
2023-07-24T22:07:44.115Z,7.80
2023-07-24T22:10:11.060Z,7.50
2023-07-24T22:12:37.805Z,8.80
2023-07-24T22:15:04.920Z,7.50
2023-07-24T22:17:32.102Z,7.90
2023-07-24T22:19:58.845Z,8.00
2023-07-24T22:22:25.668Z,8.30
2023-07-24T22:24:52.524Z,7.90
2023-07-24T22:27:19.564Z,8.70
2023-07-24T22:29:46.407Z,7.70
2023-07-24T22:32:13.345Z,8.20
2023-07-24T22:34:40.056Z,8.10
2023-07-24T22:37:08.013Z,7.90
2023-07-24T22:39:35.938Z,7.50
2023-07-24T22:42:02.718Z,7.10
2023-07-24T22:44:29.684Z,7.70
2023-07-24T22:46:56.903Z,8.30
2023-07-24T22:49:24.324Z,8.50
2023-07-24T22:51:51.164Z,8.60
2023-07-24T22:54:17.861Z,8.30
2023-07-24T22:56:44.980Z,8.90
2023-07-24T22:59:28.706Z,8.20
2023-07-24T23:01:58.221Z,7.60
2023-07-24T23:04:26.438Z,6.80
2023-07-24T23:06:55.657Z,6.90
2023-07-24T23:09:23.481Z,6.30
2023-07-24T23:11:50.604Z,6.60
2023-07-24T23:14:17.370Z,5.50
2023-07-24T23:16:44.321Z,5.70
2023-07-24T23:19:11.140Z,5.80
2023-07-24T23:21:37.981Z,6.00
2023-07-24T23:24:05.379Z,6.00
2023-07-24T23:26:32.271Z,6.20
2023-07-24T23:28:59.754Z,5.10
2023-07-24T23:31:26.534Z,6.30
2023-07-24T23:33:53.348Z,6.40
2023-07-24T23:36:20.098Z,6.80
2023-07-24T23:38:47.024Z,6.60
2023-07-24T23:41:14.109Z,6.80
2023-07-24T23:43:40.928Z,7.40
2023-07-24T23:46:15.782Z,7.00
2023-07-24T23:48:43.935Z,6.80
2023-07-24T23:51:15.859Z,7.00
2023-07-24T23:53:43.447Z,7.70
2023-07-24T23:56:10.563Z,7.80
2023-07-24T23:58:37.336Z,7.10
